Menu Close Menu
Station Historical Data
Daily Summary for June 14, 2017 Units:  English    Metric   Both
« Previous Day
Next Day »
Daily Weekly Monthly Yearly Custom
  High: Low: Average:
Temperature: 87.5 °F 68.6 °F 75.4 °F
Dew Point: 73.7 °F 66.2 °F 69.6 °F
Humidity: 94% 57% 83%
Wind Speed: 1.0mph 0.0mph 0mph
Wind Gust: 6.0mph - -
Wind- - SSW
Pressure: 30.09 in 29.97 in -
Precipitation: 1.29 in    
Historical Graphs
 
 
Tabular Data for June 14, 2017
Time Temperature Dew Point Pressure Wind Wind Speed Wind Gust Humidity Rainfall Rate (Hourly) solar Conditions
00:00 68.6 °F 66.2 °F 30.06 in Calm     92% 0.00 in WeatherDisplay:10.37 W/m2 RA
00:10 68.8 °F 66.4 °F 30.06 in Calm     92% 0.00 in WeatherDisplay:10.37 W/m2 CLR
00:20 69.0 °F 66.6 °F 30.05 in Calm     92% 0.00 in WeatherDisplay:10.37 W/m2 CLR
00:30 69.4 °F 67.3 °F 30.06 in Calm     93% 0.00 in WeatherDisplay:10.37 W/m2 CLR
00:40 69.4 °F 67.0 °F 30.07 in Calm     92% 0.00 in WeatherDisplay:10.37 W/m2 CLR
00:50 69.3 °F 66.9 °F 30.06 in Calm     92% 0.00 in WeatherDisplay:10.37 W/m2 CLR
01:00 69.4 °F 67.3 °F 30.05 in Calm     93% 0.00 in WeatherDisplay:10.37 W/m2 CLR
01:10 69.4 °F 67.3 °F 30.05 in Calm     93% 0.00 in WeatherDisplay:10.37 W/m2 CLR
01:20 69.4 °F 67.3 °F 30.04 in Calm     93% 0.00 in WeatherDisplay:10.37 W/m2 CLR
01:30 69.5 °F 67.4 °F 30.03 in Calm     93% 0.00 in WeatherDisplay:10.37 W/m2 CLR
01:40 69.5 °F 67.4 °F 30.03 in Calm     93% 0.00 in WeatherDisplay:10.37 W/m2 CLR
01:50 69.5 °F 67.4 °F 30.03 in Calm     93% 0.00 in WeatherDisplay:10.37 W/m2 CLR
02:00 69.4 °F 67.3 °F 30.03 in Calm     93% 0.00 in WeatherDisplay:10.37 W/m2 CLR
02:10 69.4 °F 67.3 °F 30.03 in Calm     93% 0.00 in WeatherDisplay:10.37 W/m2 CLR
02:20 69.4 °F 67.3 °F 30.03 in Calm     93% 0.00 in WeatherDisplay:10.37 W/m2 CLR
02:30 69.4 °F 67.3 °F 30.02 in Calm     93% 0.00 in WeatherDisplay:10.37 W/m2 CLR
02:40 69.5 °F 67.4 °F 30.02 in Calm     93% 0.00 in WeatherDisplay:10.37 W/m2 CLR
02:50 69.6 °F 67.5 °F 30.02 in Calm     93% 0.00 in WeatherDisplay:10.37 W/m2 CLR
03:00 69.7 °F 67.6 °F 30.02 in Calm     93% 0.00 in WeatherDisplay:10.37 W/m2 CLR
03:10 69.9 °F 67.8 °F 30.02 in Calm     93% 0.00 in WeatherDisplay:10.37 W/m2 CLR
03:20 69.8 °F 67.7 °F 30.02 in Calm     93% 0.00 in WeatherDisplay:10.37 W/m2 CLR
03:30 69.6 °F 67.5 °F 30.01 in Calm     93% 0.00 in WeatherDisplay:10.37 W/m2 CLR
03:40 69.1 °F 66.7 °F 30.01 in Calm     92% 0.00 in WeatherDisplay:10.37 W/m2 CLR
03:50 69.1 °F 66.7 °F 30.01 in Calm     92% 0.00 in WeatherDisplay:10.37 W/m2 CLR
04:00 69.1 °F 66.7 °F 30.01 in Calm     92% 0.00 in WeatherDisplay:10.37 W/m2 CLR
04:10 69.1 °F 66.7 °F 30.02 in Calm     92% 0.00 in WeatherDisplay:10.37 W/m2 CLR
04:20 69.1 °F 66.7 °F 30.02 in Calm     92% 0.00 in WeatherDisplay:10.37 W/m2 CLR
04:30 69.1 °F 66.7 °F 30.02 in Calm     92% 0.00 in WeatherDisplay:10.37 W/m2 CLR
04:40 69.1 °F 66.7 °F 30.02 in Calm     92% 0.00 in WeatherDisplay:10.37 W/m2 CLR
04:50 69.1 °F 66.7 °F 30.02 in Calm     92% 0.00 in WeatherDisplay:10.37 W/m2 CLR
05:00 69.1 °F 66.7 °F 30.02 in Calm     92% 0.00 in WeatherDisplay:10.37 W/m2 CLR
05:10 69.1 °F 66.7 °F 30.02 in Calm     92% 0.00 in WeatherDisplay:10.37 W/m2 CLR
05:20 69.1 °F 66.7 °F 30.03 in Calm     92% 0.00 in WeatherDisplay:10.37 W/m2 CLR
05:30 69.1 °F 66.7 °F 30.03 in Calm     92% 0.00 in WeatherDisplay:10.37 W/m2 CLR
05:40 69.1 °F 66.7 °F 30.03 in Calm     92% 0.00 in WeatherDisplay:10.37 W/m2 CLR
05:50 69.1 °F 66.7 °F 30.04 in Calm     92% 0.00 in WeatherDisplay:10.37 W/m2 CLR
06:00 69.1 °F 66.7 °F 30.04 in Calm     92% 0.00 in WeatherDisplay:10.37 W/m2 CLR
06:10 69.1 °F 66.7 °F 30.04 in Calm     92% 0.00 in WeatherDisplay:10.37 W/m2 CLR
06:20 69.1 °F 66.7 °F 30.05 in Calm     92% 0.00 in WeatherDisplay:10.37 W/m2 CLR
06:30 69.1 °F 66.7 °F 30.05 in Calm     92% 0.00 in WeatherDisplay:10.37 W/m2 CLR
06:40 69.1 °F 66.7 °F 30.05 in Calm     92% 0.00 in WeatherDisplay:10.37 W/m2 CLR
06:50 69.1 °F 66.7 °F 30.06 in Calm     92% 0.00 in WeatherDisplay:10.37 W/m2 CLR
07:00 69.1 °F 66.7 °F 30.06 in Calm     92% 0.00 in WeatherDisplay:10.37 W/m2 CLR
07:10 69.1 °F 66.7 °F 30.06 in Calm     92% 0.00 in WeatherDisplay:10.37 W/m2 CLR
07:20 69.1 °F 66.7 °F 30.06 in Calm     92% 0.00 in WeatherDisplay:10.37 W/m2 CLR
07:30 69.1 °F 66.7 °F 30.07 in Calm     92% 0.00 in WeatherDisplay:10.37 W/m2 CLR
07:40 69.1 °F 66.7 °F 30.07 in Calm     92% 0.00 in WeatherDisplay:10.37 W/m2 CLR
07:50 70.1 °F 68.3 °F 30.07 in Calm     94% 0.00 in WeatherDisplay:10.37 W/m2 CLR
08:00 70.6 °F 68.8 °F 30.07 in Calm     94% 0.00 in WeatherDisplay:10.37 W/m2 CLR
08:10 71.0 °F 69.2 °F 30.07 in Calm     94% 0.00 in WeatherDisplay:10.37 W/m2 CLR
08:20 71.5 °F 69.7 °F 30.07 in Calm     94% 0.00 in WeatherDisplay:10.37 W/m2 CLR
08:30 71.9 °F 70.1 °F 30.08 in Calm     94% 0.00 in WeatherDisplay:10.37 W/m2 CLR
08:40 72.1 °F 70.2 °F 30.08 in Calm     94% 0.00 in WeatherDisplay:10.37 W/m2 CLR
08:50 72.6 °F 70.8 °F 30.08 in Calm   1.0 mph 94% 0.00 in WeatherDisplay:10.37 W/m2 CLR
09:00 72.7 °F 70.9 °F 30.08 in Calm     94% 0.00 in WeatherDisplay:10.37 W/m2 CLR
09:10 72.9 °F 71.1 °F 30.09 in Calm   2.0 mph 94% 0.00 in WeatherDisplay:10.37 W/m2 CLR
09:20 73.4 °F 71.6 °F 30.09 in Calm   1.0 mph 94% 0.00 in WeatherDisplay:10.37 W/m2 CLR
09:30 73.7 °F 71.6 °F 30.09 in Calm   1.0 mph 93% 0.00 in WeatherDisplay:10.37 W/m2 CLR
09:40 74.2 °F 71.8 °F 30.09 in Calm   3.0 mph 92% 0.00 in WeatherDisplay:10.37 W/m2 CLR
09:50 74.8 °F 71.4 °F 30.09 in Calm   2.0 mph 89% 0.01 in WeatherDisplay:10.37 W/m2 CLR
10:00 75.6 °F 72.2 °F 30.08 in Calm   1.0 mph 89% 0.00 in WeatherDisplay:10.37 W/m2 CLR
10:10 76.8 °F 72.3 °F 30.09 in Calm   1.0 mph 86% 0.00 in WeatherDisplay:10.37 W/m2 CLR
10:20 78.0 °F 72.7 °F 30.08 in Calm   2.0 mph 84% 0.00 in WeatherDisplay:10.37 W/m2 CLR
10:30 78.8 °F 72.8 °F 30.09 in Calm   3.0 mph 82% 0.00 in WeatherDisplay:10.37 W/m2 CLR
10:40 79.3 °F 73.0 °F 30.09 in Calm   1.0 mph 81% 0.00 in WeatherDisplay:10.37 W/m2 CLR
10:50 79.7 °F 73.3 °F 30.09 in Calm   2.0 mph 81% 0.00 in WeatherDisplay:10.37 W/m2 CLR
11:00 79.6 °F 72.5 °F 30.08 in SW 1.0 mph 3.0 mph 79% 0.00 in WeatherDisplay:10.37 W/m2 CLR
11:10 79.8 °F 72.7 °F 30.08 in Calm   2.0 mph 79% 0.00 in WeatherDisplay:10.37 W/m2 CLR
11:20 80.1 °F 72.6 °F 30.08 in WSW 1.0 mph 3.0 mph 78% 0.00 in WeatherDisplay:10.37 W/m2 CLR
11:30 80.7 °F 72.0 °F 30.08 in Calm   2.0 mph 75% 0.00 in WeatherDisplay:10.37 W/m2 CLR
11:40 81.0 °F 72.4 °F 30.08 in SW 1.0 mph 2.0 mph 75% 0.00 in WeatherDisplay:10.37 W/m2 CLR
11:50 81.3 °F 73.0 °F 30.08 in Calm   5.0 mph 76% 0.00 in WeatherDisplay:10.37 W/m2 CLR
12:00 81.1 °F 72.4 °F 30.07 in Calm   2.0 mph 75% 0.00 in WeatherDisplay:10.37 W/m2 CLR
12:10 81.2 °F 72.9 °F 30.07 in Calm   1.0 mph 76% 0.00 in WeatherDisplay:10.37 W/m2 CLR
12:20 80.6 °F 70.7 °F 30.07 in Calm   5.0 mph 72% 0.00 in WeatherDisplay:10.37 W/m2 CLR
12:30 81.9 °F 72.4 °F 30.07 in Calm   3.0 mph 73% 0.00 in WeatherDisplay:10.37 W/m2 CLR
12:40 83.4 °F 72.6 °F 30.06 in Calm   1.0 mph 70% 0.00 in WeatherDisplay:10.37 W/m2 CLR
12:50 84.3 °F 73.5 °F 30.06 in Calm   2.0 mph 70% 0.00 in WeatherDisplay:10.37 W/m2 CLR
13:00 85.0 °F 73.7 °F 30.05 in Calm   2.0 mph 69% 0.00 in WeatherDisplay:10.37 W/m2 CLR
13:10 85.7 °F 72.1 °F 30.05 in Calm   2.0 mph 64% 0.00 in WeatherDisplay:10.37 W/m2 CLR
13:20 86.6 °F 73.4 °F 30.05 in WSW 1.0 mph 2.0 mph 65% 0.00 in WeatherDisplay:10.37 W/m2 CLR
13:30 86.3 °F 71.3 °F 30.05 in Calm   2.0 mph 61% 0.00 in WeatherDisplay:10.37 W/m2 CLR
13:40 86.7 °F 72.1 °F 30.05 in Calm   1.0 mph 62% 0.00 in WeatherDisplay:10.37 W/m2 CLR
13:50 86.2 °F 71.6 °F 30.04 in Calm   1.0 mph 62% 0.00 in WeatherDisplay:10.37 W/m2 CLR
14:00 85.4 °F 73.6 °F 30.04 in Calm   1.0 mph 68% 0.00 in WeatherDisplay:10.37 W/m2 CLR
14:10 86.8 °F 72.2 °F 30.03 in Calm   2.0 mph 62% 0.00 in WeatherDisplay:10.37 W/m2 CLR
14:20 87.5 °F 71.4 °F 30.02 in Calm   1.0 mph 59% 0.00 in WeatherDisplay:10.37 W/m2 CLR
14:30 86.9 °F 70.4 °F 30.02 in Calm   3.0 mph 58% 0.00 in WeatherDisplay:10.37 W/m2 CLR
14:40 86.8 °F 71.3 °F 30.02 in Calm   1.0 mph 60% 0.00 in WeatherDisplay:10.37 W/m2 CLR
14:50 86.6 °F 69.6 °F 30.01 in Calm   2.0 mph 57% 0.00 in WeatherDisplay:10.37 W/m2 CLR
15:00 86.1 °F 71.0 °F 30.01 in Calm   2.0 mph 61% 0.00 in WeatherDisplay:10.37 W/m2 CLR
15:10 85.1 °F 72.0 °F 30.00 in Calm     65% 0.00 in WeatherDisplay:10.37 W/m2 CLR
15:20 85.2 °F 70.2 °F 30.00 in Calm   2.0 mph 61% 0.00 in WeatherDisplay:10.37 W/m2 CLR
15:30 85.3 °F 71.3 °F 30.00 in Calm   1.0 mph 63% 0.00 in WeatherDisplay:10.37 W/m2 CLR
15:50 85.8 °F 72.2 °F 30.00 in Calm   1.0 mph 64% 0.00 in WeatherDisplay:10.37 W/m2 CLR
16:00 84.7 °F 73.4 °F 30.00 in Calm   1.0 mph 69% 0.00 in WeatherDisplay:10.37 W/m2 CLR
16:10 83.6 °F 72.3 °F 29.99 in Calm     69% 0.00 in WeatherDisplay:10.37 W/m2 CLR
16:20 83.2 °F 72.0 °F 29.99 in Calm   1.0 mph 69% 0.00 in WeatherDisplay:10.37 W/m2 CLR
16:30 83.3 °F 73.3 °F 29.99 in Calm   1.0 mph 72% 0.00 in WeatherDisplay:10.37 W/m2 CLR
16:40 82.9 °F 72.1 °F 29.98 in Calm   2.0 mph 70% 0.00 in WeatherDisplay:10.37 W/m2 CLR
16:50 82.4 °F 72.0 °F 29.98 in Calm     71% 0.00 in WeatherDisplay:10.37 W/m2 CLR
17:00 81.6 °F 70.9 °F 29.98 in Calm   1.0 mph 70% 0.00 in WeatherDisplay:10.37 W/m2 CLR
17:10 81.6 °F 71.7 °F 29.98 in Calm     72% 0.00 in WeatherDisplay:10.37 W/m2 CLR
17:20 81.4 °F 71.5 °F 29.99 in Calm     72% 0.00 in WeatherDisplay:10.37 W/m2 CLR
17:30 80.9 °F 71.8 °F 29.98 in Calm   1.0 mph 74% 0.00 in WeatherDisplay:10.37 W/m2 CLR
17:40 80.6 °F 71.5 °F 29.98 in Calm   1.0 mph 74% 0.00 in WeatherDisplay:10.37 W/m2 CLR
17:50 80.6 °F 71.9 °F 29.98 in Calm     75% 0.00 in WeatherDisplay:10.37 W/m2 CLR
18:00 81.2 °F 71.8 °F 29.98 in Calm   1.0 mph 73% 0.00 in WeatherDisplay:10.37 W/m2 CLR
18:10 82.6 °F 72.2 °F 29.97 in Calm   1.0 mph 71% 0.00 in WeatherDisplay:10.37 W/m2 CLR
18:20 83.1 °F 72.7 °F 29.97 in Calm   1.0 mph 71% 0.00 in WeatherDisplay:10.37 W/m2 CLR
18:30 83.2 °F 72.4 °F 29.97 in Calm   1.0 mph 70% 0.00 in WeatherDisplay:10.37 W/m2 CLR
18:40 83.4 °F 73.0 °F 29.97 in Calm     71% 0.00 in WeatherDisplay:10.37 W/m2 CLR
18:50 83.3 °F 73.3 °F 29.97 in Calm   1.0 mph 72% 0.00 in WeatherDisplay:10.37 W/m2 CLR
19:10 82.8 °F 73.7 °F 29.98 in Calm     74% 0.00 in WeatherDisplay:10.37 W/m2 CLR
19:20 82.8 °F 72.8 °F 29.98 in Calm     72% 0.00 in WeatherDisplay:10.37 W/m2 CLR
19:30 82.5 °F 73.3 °F 29.98 in Calm     74% 0.00 in WeatherDisplay:10.37 W/m2 CLR
19:40 82.1 °F 73.0 °F 29.98 in Calm     74% 0.00 in WeatherDisplay:10.37 W/m2 CLR
19:50 81.8 °F 73.5 °F 29.98 in Calm     76% 0.00 in WeatherDisplay:10.37 W/m2 CLR
20:00 81.3 °F 73.4 °F 29.99 in Calm   1.0 mph 77% 0.00 in WeatherDisplay:10.37 W/m2 CLR
20:10 80.7 °F 70.4 °F 30.00 in Calm   1.0 mph 71% 0.00 in WeatherDisplay:10.37 W/m2 CLR
20:20 79.3 °F 71.1 °F 30.01 in Calm   1.0 mph 76% 0.00 in WeatherDisplay:10.37 W/m2 CLR
20:30 77.0 °F 70.0 °F 30.02 in Calm   6.0 mph 79% 0.06 in WeatherDisplay:10.37 W/m2 RA
20:40 73.1 °F 68.4 °F 30.03 in ENE 1.0 mph 5.0 mph 85% 0.25 in WeatherDisplay:10.37 W/m2 RA
20:50 71.5 °F 68.1 °F 30.02 in Calm   2.0 mph 89% 0.25 in WeatherDisplay:10.37 W/m2 RA
21:00 70.8 °F 67.7 °F 30.02 in Calm   1.0 mph 90% 0.22 in WeatherDisplay:10.37 W/m2 RA
21:10 70.5 °F 67.8 °F 30.04 in Calm   1.0 mph 91% 0.18 in WeatherDisplay:10.37 W/m2 RA
21:20 70.0 °F 67.3 °F 30.04 in Calm   1.0 mph 91% 0.16 in WeatherDisplay:10.37 W/m2 RA
21:30 69.8 °F 67.0 °F 30.02 in Calm   1.0 mph 91% 0.10 in WeatherDisplay:10.37 W/m2 RA
21:40 69.7 °F 67.2 °F 30.02 in Calm   1.0 mph 92% 0.04 in WeatherDisplay:10.37 W/m2 CLR
21:50 69.3 °F 66.9 °F 30.02 in Calm     92% 0.00 in WeatherDisplay:10.37 W/m2 CLR
22:00 69.0 °F 66.6 °F 30.02 in Calm   1.0 mph 92% 0.01 in WeatherDisplay:10.37 W/m2 CLR
22:10 68.9 °F 66.5 °F 30.01 in Calm     92% 0.00 in WeatherDisplay:10.37 W/m2 CLR
22:20 68.9 °F 66.5 °F 30.02 in Calm   1.0 mph 92% 0.00 in WeatherDisplay:10.37 W/m2 CLR
22:30 68.8 °F 66.4 °F 30.02 in Calm     92% 0.00 in WeatherDisplay:10.37 W/m2 CLR
22:40 68.8 °F 66.4 °F 30.02 in Calm     92% 0.00 in WeatherDisplay:10.37 W/m2 CLR
22:50 68.7 °F 66.3 °F 30.02 in Calm   1.0 mph 92% 0.00 in WeatherDisplay:10.37 W/m2 CLR
23:00 68.8 °F 66.7 °F 30.02 in Calm   1.0 mph 93% 0.00 in WeatherDisplay:10.37 W/m2 CLR
23:10 68.7 °F 66.6 °F 30.03 in Calm     93% 0.00 in WeatherDisplay:10.37 W/m2 CLR
23:20 68.6 °F 66.5 °F 30.03 in Calm   1.0 mph 93% 0.00 in WeatherDisplay:10.37 W/m2 CLR
23:30 68.6 °F 66.5 °F 30.02 in Calm     93% 0.00 in WeatherDisplay:10.37 W/m2 CLR
23:40 68.6 °F 66.5 °F 30.02 in Calm     93% 0.00 in WeatherDisplay:10.37 W/m2 CLR
23:50 68.6 °F 66.5 °F 30.02 in Calm     93% 0.00 in WeatherDisplay:10.37 W/m2 CLR
Piedmont Bend
Compliments of Weather Underground - 4 mb